createdAt,value
2023-05-01T00:00:52.887Z,36.25
2023-05-01T00:01:52.868Z,36.09
2023-05-01T00:02:52.963Z,36.90
2023-05-01T00:03:53.196Z,36.25
2023-05-01T00:04:52.841Z,36.42
2023-05-01T00:05:52.827Z,36.74
2023-05-01T00:06:53.517Z,36.25
2023-05-01T00:07:52.822Z,37.06
2023-05-01T00:08:52.802Z,36.42
2023-05-01T00:09:52.783Z,35.77
2023-05-01T00:10:52.777Z,35.77
2023-05-01T00:11:52.766Z,36.09
2023-05-01T00:12:52.773Z,35.45
2023-05-01T00:13:52.746Z,35.13
2023-05-01T00:14:52.726Z,35.45
2023-05-01T00:15:52.762Z,36.90
2023-05-01T00:16:52.969Z,37.71
2023-05-01T00:17:52.722Z,37.38
2023-05-01T00:18:52.690Z,37.38
2023-05-01T00:19:52.677Z,36.42
2023-05-01T00:20:52.675Z,35.93
2023-05-01T00:21:52.674Z,36.90
2023-05-01T00:22:52.672Z,36.58
2023-05-01T00:23:52.640Z,36.74
2023-05-01T00:24:52.627Z,36.09
2023-05-01T00:25:52.648Z,37.06
2023-05-01T00:26:52.610Z,36.58
2023-05-01T00:27:52.601Z,38.03
2023-05-01T00:28:52.585Z,36.09
2023-05-01T00:29:52.576Z,36.25
2023-05-01T00:30:52.572Z,35.77
2023-05-01T00:31:52.621Z,36.25
2023-05-01T00:32:52.581Z,36.09
2023-05-01T00:33:52.532Z,36.74
2023-05-01T00:34:52.525Z,37.87
2023-05-01T00:35:52.510Z,36.42
2023-05-01T00:36:52.503Z,36.74
2023-05-01T00:37:52.500Z,36.58
2023-05-01T00:38:52.488Z,36.42
2023-05-01T00:39:52.472Z,36.74
2023-05-01T00:40:52.462Z,36.74
2023-05-01T00:41:52.449Z,37.38
2023-05-01T00:42:52.451Z,37.54
2023-05-01T00:43:52.433Z,37.22
2023-05-01T00:44:52.435Z,37.06
2023-05-01T00:45:52.455Z,36.58
2023-05-01T00:46:52.401Z,36.42
2023-05-01T00:47:52.413Z,36.74
2023-05-01T00:48:52.377Z,35.93
2023-05-01T00:49:52.368Z,35.93
2023-05-01T00:50:52.354Z,35.45
2023-05-01T00:51:52.347Z,36.25
2023-05-01T00:52:52.345Z,37.54
2023-05-01T00:53:52.328Z,36.25
2023-05-01T00:54:52.312Z,36.09
2023-05-01T00:55:52.299Z,35.77
2023-05-01T00:56:52.320Z,36.58
2023-05-01T00:57:52.291Z,36.09
2023-05-01T00:58:52.269Z,36.42
2023-05-01T00:59:52.260Z,36.74
2023-05-01T01:00:52.380Z,36.58
2023-05-01T01:01:53.806Z,36.09
2023-05-01T01:02:52.271Z,36.74
2023-05-01T01:03:52.248Z,36.58
2023-05-01T01:04:52.267Z,36.74
2023-05-01T01:05:52.199Z,36.58
2023-05-01T01:06:52.186Z,35.93
2023-05-01T01:07:52.178Z,37.22
2023-05-01T01:08:52.163Z,36.58
2023-05-01T01:09:52.150Z,36.42
2023-05-01T01:10:52.142Z,36.42
2023-05-01T01:11:52.129Z,37.22
2023-05-01T01:12:52.130Z,37.22
2023-05-01T01:13:52.110Z,36.58
2023-05-01T01:14:52.114Z,37.22
2023-05-01T01:15:52.088Z,36.74
2023-05-01T01:16:52.114Z,36.09
2023-05-01T01:17:52.106Z,36.42
2023-05-01T01:18:52.055Z,36.74
2023-05-01T01:19:52.037Z,36.09
2023-05-01T01:20:52.044Z,37.22
2023-05-01T01:21:52.023Z,36.58
2023-05-01T01:22:52.029Z,36.42
2023-05-01T01:23:51.998Z,37.22
2023-05-01T01:24:51.992Z,37.06
2023-05-01T01:25:51.978Z,37.54
2023-05-01T01:26:51.976Z,37.06
2023-05-01T01:27:51.970Z,37.06
2023-05-01T01:28:51.963Z,36.90
2023-05-01T01:29:51.934Z,36.90
2023-05-01T01:30:51.948Z,36.09
2023-05-01T01:31:51.916Z,36.74
2023-05-01T01:32:51.987Z,37.54
2023-05-01T01:33:51.904Z,37.71
2023-05-01T01:34:51.886Z,37.06
2023-05-01T01:35:51.868Z,36.42
2023-05-01T01:36:51.861Z,36.25
2023-05-01T01:37:51.852Z,36.25
2023-05-01T01:38:51.865Z,36.25
2023-05-01T01:39:51.879Z,36.74
2023-05-01T01:40:51.821Z,36.09
2023-05-01T01:41:51.810Z,36.09
2023-05-01T01:42:51.806Z,35.77
2023-05-01T01:43:51.802Z,36.09
2023-05-01T01:44:51.789Z,37.06
2023-05-01T01:45:51.847Z,36.25
2023-05-01T01:46:51.761Z,36.58
2023-05-01T01:47:51.797Z,36.74
2023-05-01T01:48:51.755Z,37.54
2023-05-01T01:49:51.730Z,36.58
2023-05-01T01:50:51.721Z,36.90
2023-05-01T01:51:51.713Z,37.06
2023-05-01T01:52:51.701Z,37.71
2023-05-01T01:53:51.703Z,37.22
2023-05-01T01:54:51.680Z,37.22
2023-05-01T01:55:51.669Z,37.38
2023-05-01T01:56:51.658Z,36.90
2023-05-01T01:57:51.659Z,37.06
2023-05-01T01:58:51.663Z,36.90
2023-05-01T01:59:51.628Z,37.06
2023-05-01T02:00:51.612Z,36.90
2023-05-01T02:01:51.688Z,36.90
2023-05-01T02:02:51.725Z,37.22
2023-05-01T02:03:51.709Z,36.90
2023-05-01T02:04:51.603Z,37.06
2023-05-01T02:05:51.564Z,36.74
2023-05-01T02:06:51.572Z,37.22
2023-05-01T02:07:51.570Z,37.38
2023-05-01T02:08:51.557Z,36.74
2023-05-01T02:09:51.523Z,36.09
2023-05-01T02:10:51.514Z,36.25
2023-05-01T02:11:51.507Z,36.58
2023-05-01T02:12:51.500Z,37.06
2023-05-01T02:13:51.487Z,38.03
2023-05-01T02:14:51.484Z,37.22
2023-05-01T02:15:51.487Z,37.06
2023-05-01T02:16:51.457Z,36.42
2023-05-01T02:17:51.489Z,36.90
2023-05-01T02:18:51.445Z,37.38
2023-05-01T02:19:51.421Z,36.90
2023-05-01T02:20:51.414Z,37.22
2023-05-01T02:21:51.397Z,36.90
2023-05-01T02:22:51.393Z,37.38
2023-05-01T02:23:51.398Z,36.74
2023-05-01T02:24:51.378Z,37.38
2023-05-01T02:25:51.357Z,36.42
2023-05-01T02:26:51.350Z,36.25
2023-05-01T02:27:51.347Z,37.06
2023-05-01T02:28:51.351Z,37.22
2023-05-01T02:29:51.314Z,36.90
2023-05-01T02:30:51.313Z,37.06
2023-05-01T02:31:51.340Z,36.90
2023-05-01T02:32:51.335Z,36.74
2023-05-01T02:33:51.287Z,37.06
2023-05-01T02:34:51.274Z,37.87
2023-05-01T02:35:51.254Z,37.54
2023-05-01T02:36:51.249Z,37.71
2023-05-01T02:37:51.246Z,37.71
2023-05-01T02:38:51.302Z,37.06
2023-05-01T02:39:51.215Z,37.38
2023-05-01T02:40:51.207Z,37.71
2023-05-01T02:41:51.202Z,37.71
2023-05-01T02:42:51.182Z,37.22
2023-05-01T02:43:51.184Z,37.22
2023-05-01T02:44:51.165Z,37.06
2023-05-01T02:45:51.153Z,36.90
2023-05-01T02:46:51.156Z,37.87
2023-05-01T02:47:51.218Z,36.90
2023-05-01T02:48:51.138Z,37.06
2023-05-01T02:49:51.113Z,37.38
2023-05-01T02:50:51.100Z,37.22
2023-05-01T02:51:51.093Z,38.19
2023-05-01T02:52:51.075Z,37.87
2023-05-01T02:53:51.078Z,37.87
2023-05-01T02:54:51.063Z,38.03
2023-05-01T02:55:51.066Z,38.19
2023-05-01T02:56:51.035Z,38.67
2023-05-01T02:57:51.029Z,38.19
2023-05-01T02:58:51.027Z,39.64
2023-05-01T02:59:51.012Z,39.96
2023-05-01T03:00:51.028Z,38.67
2023-05-01T03:01:51.116Z,39.32
2023-05-01T03:02:50.993Z,39.64
2023-05-01T03:03:50.989Z,39.96
2023-05-01T03:04:50.956Z,40.12
2023-05-01T03:05:50.950Z,39.16
2023-05-01T03:06:51.074Z,39.96
2023-05-01T03:07:50.931Z,39.80
2023-05-01T03:08:50.927Z,39.96
2023-05-01T03:09:50.920Z,40.44
2023-05-01T03:10:50.891Z,41.41
2023-05-01T03:11:50.882Z,40.12
2023-05-01T03:12:50.872Z,40.61
2023-05-01T03:13:50.877Z,39.32
2023-05-01T03:14:50.849Z,40.28
2023-05-01T03:15:50.874Z,40.44
2023-05-01T03:16:50.935Z,41.41
2023-05-01T03:17:50.856Z,41.41
2023-05-01T03:18:50.818Z,41.41
2023-05-01T03:19:50.795Z,40.77
2023-05-01T03:20:50.786Z,41.25
2023-05-01T03:21:50.777Z,41.09
2023-05-01T03:22:50.766Z,40.93
2023-05-01T03:23:50.775Z,40.93
2023-05-01T03:24:50.885Z,39.96
2023-05-01T03:25:50.735Z,39.80
2023-05-01T03:26:50.727Z,39.96
2023-05-01T03:27:50.741Z,42.38
2023-05-01T03:28:50.716Z,39.48
2023-05-01T03:29:50.695Z,39.32
2023-05-01T03:30:50.691Z,39.96
2023-05-01T03:31:50.726Z,39.32
2023-05-01T03:32:50.685Z,39.96
2023-05-01T03:33:50.675Z,39.32
2023-05-01T03:34:50.697Z,39.96
2023-05-01T03:35:50.632Z,39.96
2023-05-01T03:36:50.623Z,38.83
2023-05-01T03:37:50.615Z,39.32
2023-05-01T03:38:50.632Z,38.83
2023-05-01T03:39:50.604Z,39.48
2023-05-01T03:40:50.581Z,39.16
2023-05-01T03:41:50.579Z,40.77
2023-05-01T03:42:50.559Z,39.64
2023-05-01T03:43:50.562Z,39.16
2023-05-01T03:44:50.544Z,39.64
2023-05-01T03:45:50.566Z,40.28
2023-05-01T03:46:50.517Z,39.80
2023-05-01T03:47:50.647Z,39.32
2023-05-01T03:48:50.502Z,38.67
2023-05-01T03:49:50.491Z,39.80
2023-05-01T03:50:50.476Z,39.48
2023-05-01T03:51:50.467Z,38.83
2023-05-01T03:52:50.457Z,39.16
2023-05-01T03:53:50.610Z,39.32
2023-05-01T03:54:50.436Z,38.99
2023-05-01T03:55:50.424Z,39.48
2023-05-01T03:56:50.416Z,39.96
2023-05-01T03:57:50.406Z,39.32
2023-05-01T03:58:50.395Z,40.61
2023-05-01T03:59:50.399Z,39.32
2023-05-01T04:00:50.380Z,39.32
2023-05-01T04:01:50.417Z,39.16
2023-05-01T04:02:50.610Z,39.32
2023-05-01T04:03:50.437Z,39.48
2023-05-01T04:04:50.343Z,39.32
2023-05-01T04:05:50.326Z,39.32
2023-05-01T04:06:50.393Z,38.83
2023-05-01T04:07:50.313Z,39.32
2023-05-01T04:08:50.289Z,38.83
2023-05-01T04:09:50.298Z,38.67
2023-05-01T04:10:50.271Z,39.64
2023-05-01T04:11:50.296Z,39.96
2023-05-01T04:12:50.326Z,39.32
2023-05-01T04:13:50.249Z,39.64
2023-05-01T04:14:50.244Z,39.80
2023-05-01T04:15:50.272Z,38.35
2023-05-01T04:16:50.216Z,38.99
2023-05-01T04:17:50.298Z,39.16
2023-05-01T04:18:50.195Z,39.16
2023-05-01T04:19:50.203Z,38.67
2023-05-01T04:20:50.180Z,38.35
2023-05-01T04:21:50.167Z,38.35
2023-05-01T04:22:50.177Z,40.12
2023-05-01T04:23:50.153Z,39.80
2023-05-01T04:24:50.148Z,38.99
2023-05-01T04:25:50.129Z,39.64
2023-05-01T04:26:50.121Z,39.16
2023-05-01T04:27:50.106Z,39.48
2023-05-01T04:28:50.099Z,40.77
2023-05-01T04:29:50.095Z,38.99
2023-05-01T04:30:50.078Z,38.83
2023-05-01T04:31:50.089Z,38.35
2023-05-01T04:32:50.077Z,38.99
2023-05-01T04:33:50.049Z,39.80
2023-05-01T04:34:50.044Z,39.96
2023-05-01T04:35:50.029Z,37.71
2023-05-01T04:36:50.008Z,38.67
2023-05-01T04:37:50.007Z,38.51
2023-05-01T04:38:50.000Z,39.16
2023-05-01T04:39:51.115Z,38.99
2023-05-01T04:40:51.087Z,38.67
2023-05-01T04:41:51.082Z,39.32
2023-05-01T04:42:51.071Z,39.96
2023-05-01T04:43:51.056Z,40.61
2023-05-01T04:44:51.063Z,39.80
2023-05-01T04:45:51.049Z,39.64
2023-05-01T04:46:51.070Z,39.32
2023-05-01T04:47:51.040Z,38.83
2023-05-01T04:48:51.010Z,39.64
2023-05-01T04:49:50.992Z,38.51
2023-05-01T04:50:51.994Z,37.87
2023-05-01T04:51:50.983Z,38.03
2023-05-01T04:52:50.970Z,38.67
2023-05-01T04:53:50.969Z,39.48
2023-05-01T04:54:50.961Z,38.51
2023-05-01T04:55:50.957Z,38.67
2023-05-01T04:56:50.936Z,38.83
2023-05-01T04:57:50.922Z,38.51
2023-05-01T04:58:50.916Z,38.83
2023-05-01T04:59:50.919Z,39.32
2023-05-01T05:00:50.898Z,39.32
2023-05-01T05:01:50.905Z,39.80
2023-05-01T05:02:50.925Z,39.32
2023-05-01T05:03:51.077Z,38.83
2023-05-01T05:04:51.033Z,39.80
2023-05-01T05:05:50.856Z,39.32
2023-05-01T05:06:50.853Z,38.67
2023-05-01T05:07:50.823Z,39.96
2023-05-01T05:08:50.820Z,40.61
2023-05-01T05:09:50.820Z,39.48
2023-05-01T05:10:50.798Z,39.32
2023-05-01T05:11:50.789Z,39.32
2023-05-01T05:12:50.782Z,41.73
2023-05-01T05:13:50.767Z,42.70
2023-05-01T05:14:50.755Z,44.31
2023-05-01T05:15:50.754Z,43.67
2023-05-01T05:16:50.870Z,40.77
2023-05-01T05:17:50.780Z,41.57
2023-05-01T05:18:50.722Z,40.61
2023-05-01T05:19:50.707Z,40.12
2023-05-01T05:20:50.734Z,39.64
2023-05-01T05:21:50.685Z,39.48
2023-05-01T05:22:50.694Z,39.80
2023-05-01T05:23:50.676Z,38.51
2023-05-01T05:24:50.654Z,39.16
2023-05-01T05:25:50.659Z,39.32
2023-05-01T05:26:50.632Z,39.16
2023-05-01T05:27:50.628Z,38.67
2023-05-01T05:28:50.621Z,39.64
2023-05-01T05:29:50.615Z,38.19
2023-05-01T05:30:50.608Z,38.35
2023-05-01T05:31:50.649Z,38.99
2023-05-01T05:32:50.597Z,37.71
2023-05-01T05:33:50.574Z,38.83
2023-05-01T05:34:50.556Z,38.51
2023-05-01T05:35:50.559Z,38.67
2023-05-01T05:36:50.545Z,39.32
2023-05-01T05:37:50.527Z,38.99
2023-05-01T05:38:50.520Z,39.32
2023-05-01T05:39:50.516Z,38.35
2023-05-01T05:40:50.524Z,38.19
2023-05-01T05:41:50.497Z,37.71
2023-05-01T05:42:50.482Z,39.32
2023-05-01T05:43:50.475Z,38.35
2023-05-01T05:44:50.466Z,38.35
2023-05-01T05:45:50.504Z,40.61
2023-05-01T05:46:50.441Z,38.51
2023-05-01T05:47:50.504Z,38.35
2023-05-01T05:48:50.431Z,40.61
2023-05-01T05:49:50.475Z,41.89
2023-05-01T05:50:50.408Z,40.93
2023-05-01T05:51:50.395Z,37.71
2023-05-01T05:52:50.386Z,41.09
2023-05-01T05:53:50.378Z,40.12
2023-05-01T05:54:50.365Z,39.48
2023-05-01T05:55:50.369Z,39.96
2023-05-01T05:56:50.356Z,41.73
2023-05-01T05:57:50.332Z,41.25
2023-05-01T05:58:50.346Z,39.64
2023-05-01T05:59:50.313Z,39.32
2023-05-01T06:00:50.336Z,38.67
2023-05-01T06:01:50.305Z,38.99
2023-05-01T06:02:50.324Z,39.32
2023-05-01T06:03:50.299Z,38.35
2023-05-01T06:04:50.274Z,39.64
2023-05-01T06:05:50.279Z,37.87
2023-05-01T06:06:50.283Z,38.67
2023-05-01T06:07:50.231Z,40.77
2023-05-01T06:08:50.227Z,38.99
2023-05-01T06:09:50.241Z,39.16
2023-05-01T06:10:50.199Z,38.35
2023-05-01T06:11:50.280Z,37.87
2023-05-01T06:12:59.321Z,40.61
2023-05-01T06:13:51.188Z,39.16
2023-05-01T06:14:50.173Z,39.16
2023-05-01T06:15:50.240Z,40.28
2023-05-01T06:16:50.145Z,37.87
2023-05-01T06:17:50.224Z,35.93
2023-05-01T06:18:50.127Z,37.71
2023-05-01T06:19:50.282Z,37.38
2023-05-01T06:20:50.183Z,38.19
2023-05-01T06:21:50.170Z,38.03
2023-05-01T06:22:50.160Z,38.83
2023-05-01T06:23:50.116Z,38.35
2023-05-01T06:24:50.147Z,39.32
2023-05-01T06:25:50.101Z,38.99
2023-05-01T06:26:50.156Z,38.99
2023-05-01T06:27:50.139Z,37.87
2023-05-01T06:28:50.030Z,36.90
2023-05-01T06:29:50.032Z,38.03
2023-05-01T06:30:50.029Z,38.35
2023-05-01T06:31:50.187Z,39.96
2023-05-01T06:32:50.093Z,39.32
2023-05-01T06:33:49.985Z,39.48
2023-05-01T06:34:49.976Z,39.64
2023-05-01T06:35:49.985Z,38.03
2023-05-01T06:36:49.954Z,38.67
2023-05-01T06:37:49.945Z,38.67
2023-05-01T06:38:49.940Z,39.96
2023-05-01T06:39:49.922Z,40.28
2023-05-01T06:40:49.920Z,39.16
2023-05-01T06:41:49.903Z,38.35
2023-05-01T06:42:49.888Z,38.83
2023-05-01T06:44:05.127Z,38.51
2023-05-01T06:47:16.821Z,38.35
2023-05-01T06:48:16.424Z,37.54
2023-05-01T06:49:16.432Z,36.58
2023-05-01T06:50:16.413Z,36.90
2023-05-01T06:51:16.392Z,37.38
2023-05-01T06:52:16.396Z,36.42
2023-05-01T06:53:16.370Z,39.16
2023-05-01T06:54:16.366Z,38.19
2023-05-01T06:55:16.368Z,37.38
2023-05-01T06:56:16.352Z,37.38
2023-05-01T06:57:16.324Z,36.58
2023-05-01T06:58:23.517Z,36.09
2023-05-01T06:59:17.302Z,35.93
2023-05-01T07:00:16.302Z,36.58
2023-05-01T07:01:16.406Z,37.87
2023-05-01T07:02:16.328Z,44.79
2023-05-01T07:03:16.283Z,37.54
2023-05-01T07:04:16.255Z,36.58
2023-05-01T07:05:16.252Z,36.42
2023-05-01T07:06:16.313Z,35.61
2023-05-01T07:07:16.256Z,36.74
2023-05-01T07:08:16.217Z,35.13
2023-05-01T07:09:16.229Z,34.80
2023-05-01T07:10:16.359Z,34.80
2023-05-01T07:11:16.177Z,35.61
2023-05-01T07:12:16.200Z,37.38
2023-05-01T07:13:16.186Z,36.42
2023-05-01T07:14:16.188Z,35.77
2023-05-01T07:15:16.144Z,34.97
2023-05-01T07:16:16.180Z,35.29
2023-05-01T07:17:16.121Z,35.93
2023-05-01T07:18:16.112Z,35.45
2023-05-01T07:19:16.102Z,35.77
2023-05-01T07:20:16.087Z,35.29
2023-05-01T07:21:16.089Z,35.77
2023-05-01T07:22:16.074Z,36.90
2023-05-01T07:23:16.049Z,34.80
2023-05-01T07:24:16.053Z,36.74
2023-05-01T07:25:16.044Z,35.77
2023-05-01T07:26:16.048Z,36.09
2023-05-01T07:27:16.056Z,35.29
2023-05-01T07:28:16.001Z,36.25
2023-05-01T07:29:15.994Z,35.93
2023-05-01T07:30:15.993Z,36.74
2023-05-01T07:31:16.023Z,37.87
2023-05-01T07:32:16.040Z,36.09
2023-05-01T07:33:15.989Z,36.74
2023-05-01T07:34:15.948Z,35.77
2023-05-01T07:35:15.954Z,34.97
2023-05-01T07:36:15.940Z,34.80
2023-05-01T07:37:16.065Z,34.97
2023-05-01T07:38:15.910Z,35.45
2023-05-01T07:39:15.885Z,34.64
2023-05-01T07:40:15.986Z,34.64
2023-05-01T07:41:15.880Z,34.97
2023-05-01T07:42:15.874Z,37.87
2023-05-01T07:43:15.846Z,39.32
2023-05-01T07:44:15.845Z,37.06
2023-05-01T07:45:15.824Z,36.42
2023-05-01T07:46:15.898Z,35.93
2023-05-01T07:47:15.799Z,35.93
2023-05-01T07:48:15.830Z,37.71
2023-05-01T07:49:15.782Z,36.09
2023-05-01T07:50:15.779Z,36.90
2023-05-01T07:51:15.772Z,36.25
2023-05-01T07:52:16.507Z,34.80
2023-05-01T07:53:15.740Z,35.93
2023-05-01T07:54:17.585Z,37.38
2023-05-01T07:55:22.583Z,37.06
2023-05-01T07:56:15.721Z,37.06
2023-05-01T07:57:15.695Z,37.22
2023-05-01T07:58:15.715Z,36.74
2023-05-01T07:59:15.677Z,38.35
2023-05-01T08:00:15.678Z,36.42
2023-05-01T08:01:15.666Z,37.06
2023-05-01T08:02:15.649Z,37.06
2023-05-01T08:03:15.870Z,35.61
2023-05-01T08:04:15.740Z,40.12
2023-05-01T08:05:15.604Z,37.54
2023-05-01T08:06:15.641Z,36.09
2023-05-01T08:07:15.587Z,35.61
2023-05-01T08:08:15.637Z,36.42
2023-05-01T08:09:15.560Z,36.25
2023-05-01T08:10:15.565Z,35.77
2023-05-01T08:11:15.557Z,36.74
2023-05-01T08:12:15.552Z,37.38
2023-05-01T08:13:15.555Z,36.42
2023-05-01T08:14:15.525Z,38.51
2023-05-01T08:15:15.512Z,35.45
2023-05-01T08:16:15.559Z,35.45
2023-05-01T08:17:15.484Z,36.25
2023-05-01T08:18:15.468Z,35.93
2023-05-01T08:19:15.466Z,38.19
2023-05-01T08:20:15.487Z,37.06
2023-05-01T08:21:15.460Z,37.38
2023-05-01T08:22:15.446Z,37.06
2023-05-01T08:23:15.414Z,37.06
2023-05-01T08:24:15.409Z,39.64
2023-05-01T08:25:15.391Z,35.61
2023-05-01T08:26:15.407Z,37.06
2023-05-01T08:27:15.377Z,38.67
2023-05-01T08:28:15.376Z,35.77
2023-05-01T08:29:15.355Z,36.09
2023-05-01T08:30:15.345Z,36.74
2023-05-01T08:31:15.361Z,36.58
2023-05-01T08:32:15.324Z,36.42
2023-05-01T08:33:15.328Z,36.25
2023-05-01T08:34:15.313Z,36.09
2023-05-01T08:35:15.305Z,36.09
2023-05-01T08:36:15.301Z,35.45
2023-05-01T08:37:15.276Z,36.90
2023-05-01T08:38:15.296Z,37.06
2023-05-01T08:39:15.266Z,36.74
2023-05-01T08:40:15.253Z,38.19
2023-05-01T08:41:15.238Z,35.93
2023-05-01T08:42:15.216Z,36.09
2023-05-01T08:43:15.231Z,37.06
2023-05-01T08:44:15.191Z,36.74
2023-05-01T08:45:15.182Z,36.42
2023-05-01T08:46:15.239Z,37.22
2023-05-01T08:47:15.159Z,38.35
2023-05-01T08:48:15.164Z,37.06
2023-05-01T08:49:15.149Z,36.25
2023-05-01T08:50:15.126Z,34.80
2023-05-01T08:51:15.122Z,35.29
2023-05-01T08:52:15.148Z,34.97
2023-05-01T08:53:15.097Z,35.29
2023-05-01T08:54:15.092Z,37.06
2023-05-01T08:55:15.106Z,37.06
2023-05-01T08:56:15.074Z,36.09
2023-05-01T08:57:15.051Z,36.90
2023-05-01T08:58:15.080Z,37.38
2023-05-01T08:59:15.047Z,35.93
2023-05-01T09:00:15.026Z,35.93
2023-05-01T09:01:15.064Z,35.61
2023-05-01T09:02:14.994Z,38.35
2023-05-01T09:03:15.037Z,35.45
2023-05-01T09:04:15.032Z,35.29
2023-05-01T09:05:14.966Z,35.13
2023-05-01T09:06:14.975Z,38.67
2023-05-01T09:07:14.937Z,41.41
2023-05-01T09:08:14.928Z,35.93
2023-05-01T09:09:14.921Z,36.25
2023-05-01T09:10:14.914Z,36.25
2023-05-01T09:11:14.909Z,39.32
2023-05-01T09:12:14.892Z,37.22
2023-05-01T09:13:14.891Z,37.54
2023-05-01T09:14:14.872Z,37.06
2023-05-01T09:15:14.859Z,34.97
2023-05-01T09:16:14.884Z,35.77
2023-05-01T09:17:14.840Z,36.90
2023-05-01T09:18:14.922Z,35.93
2023-05-01T09:19:14.817Z,37.38
2023-05-01T09:20:14.825Z,34.16
2023-05-01T09:21:14.809Z,34.16
2023-05-01T09:22:14.795Z,34.97
2023-05-01T09:23:14.779Z,34.97
2023-05-01T09:24:14.773Z,45.12
2023-05-01T09:25:14.775Z,34.00
2023-05-01T09:26:14.767Z,34.80
2023-05-01T09:27:14.800Z,34.64
2023-05-01T09:28:14.730Z,35.13
2023-05-01T09:29:14.726Z,35.45
2023-05-01T09:30:14.741Z,33.84
2023-05-01T09:31:14.815Z,32.87
2023-05-01T09:32:15.893Z,33.19
2023-05-01T09:33:15.850Z,34.16
2023-05-01T09:34:15.796Z,38.03
2023-05-01T09:35:15.814Z,38.99
2023-05-01T09:36:15.959Z,34.64
2023-05-01T09:37:15.789Z,36.42
2023-05-01T09:38:15.760Z,33.84
2023-05-01T09:39:15.769Z,32.07
2023-05-01T09:40:15.772Z,33.19
2023-05-01T09:41:15.760Z,35.77
2023-05-01T09:42:15.734Z,36.74
2023-05-01T09:43:15.704Z,41.25
2023-05-01T09:44:15.737Z,52.37
2023-05-01T09:45:15.700Z,50.92
2023-05-01T09:46:15.747Z,47.05
2023-05-01T09:47:15.673Z,35.61
2023-05-01T09:48:15.693Z,36.42
2023-05-01T09:49:15.648Z,34.16
2023-05-01T09:50:15.696Z,38.03
2023-05-01T09:51:15.623Z,34.32
2023-05-01T09:52:15.642Z,32.87
2023-05-01T09:53:15.612Z,32.39
2023-05-01T09:54:15.593Z,33.84
2023-05-01T09:55:15.626Z,32.87
2023-05-01T09:56:15.598Z,33.19
2023-05-01T09:57:15.629Z,34.00
2023-05-01T09:58:15.608Z,34.16
2023-05-01T09:59:15.608Z,33.52
2023-05-01T10:00:15.588Z,34.48
2023-05-01T10:01:15.590Z,37.38
2023-05-01T10:02:15.570Z,37.54
2023-05-01T10:03:15.620Z,38.35
2023-05-01T10:04:15.543Z,38.67
2023-05-01T10:05:15.541Z,37.38
2023-05-01T10:06:15.516Z,35.61
2023-05-01T10:07:15.522Z,35.61
2023-05-01T10:08:15.482Z,37.71
2023-05-01T10:09:15.553Z,41.73
2023-05-01T10:10:15.495Z,34.16
2023-05-01T10:11:15.476Z,35.45
2023-05-01T10:12:15.443Z,34.48
2023-05-01T10:13:15.429Z,34.80
2023-05-01T10:14:15.412Z,36.25
2023-05-01T10:15:24.484Z,38.67
2023-05-01T10:16:17.448Z,34.00
2023-05-01T10:17:15.442Z,33.52
2023-05-01T10:18:15.495Z,33.35
2023-05-01T10:19:15.378Z,35.45
2023-05-01T10:20:15.362Z,35.45
2023-05-01T10:21:15.379Z,35.45
2023-05-01T10:22:15.414Z,36.58
2023-05-01T10:23:15.378Z,39.48
2023-05-01T10:24:15.383Z,38.35
2023-05-01T10:25:15.336Z,39.16
2023-05-01T10:26:15.322Z,35.13
2023-05-01T10:27:15.326Z,34.00
2023-05-01T10:28:15.293Z,36.58
2023-05-01T10:29:15.307Z,35.93
2023-05-01T10:30:15.285Z,35.77
2023-05-01T10:31:15.309Z,34.97
2023-05-01T10:32:15.276Z,37.06
2023-05-01T10:33:15.308Z,40.44
2023-05-01T10:34:15.239Z,35.61
2023-05-01T10:35:15.346Z,36.25
2023-05-01T10:36:15.232Z,34.00
2023-05-01T10:37:15.231Z,34.48
2023-05-01T10:38:15.202Z,34.48
2023-05-01T10:39:15.195Z,35.45
2023-05-01T10:40:15.232Z,36.90
2023-05-01T10:41:15.168Z,38.35
2023-05-01T10:42:15.209Z,39.80
2023-05-01T10:43:15.181Z,34.97
2023-05-01T10:44:15.147Z,33.52
2023-05-01T10:45:15.114Z,34.16
2023-05-01T10:46:15.147Z,33.35
2023-05-01T10:47:15.121Z,34.64
2023-05-01T10:48:15.098Z,38.67
2023-05-01T10:49:15.111Z,34.16
2023-05-01T10:50:15.299Z,34.16
2023-05-01T10:51:15.082Z,35.61
2023-05-01T10:52:15.097Z,35.93
2023-05-01T10:53:15.095Z,34.48
2023-05-01T10:54:15.052Z,33.84
2023-05-01T10:55:15.054Z,39.96
2023-05-01T10:56:15.039Z,34.16
2023-05-01T10:57:15.064Z,34.48
2023-05-01T10:58:15.034Z,36.58
2023-05-01T10:59:15.033Z,35.77
2023-05-01T11:00:15.057Z,34.64
2023-05-01T11:01:14.995Z,33.84
2023-05-01T11:02:15.070Z,33.03
2023-05-01T11:03:15.011Z,36.42
2023-05-01T11:04:14.969Z,34.80
2023-05-01T11:05:15.068Z,33.35
2023-05-01T11:06:15.052Z,33.35
2023-05-01T11:07:15.047Z,33.19
2023-05-01T11:08:14.938Z,34.80
2023-05-01T11:09:14.940Z,42.38
2023-05-01T11:10:14.924Z,36.90
2023-05-01T11:11:14.909Z,35.61
2023-05-01T11:12:14.899Z,33.84
2023-05-01T11:13:14.876Z,36.58
2023-05-01T11:14:14.848Z,42.38
2023-05-01T11:15:14.863Z,33.52
2023-05-01T11:16:14.896Z,33.68
2023-05-01T11:17:14.858Z,34.00
2023-05-01T11:18:14.866Z,33.68
2023-05-01T11:19:14.802Z,34.97
2023-05-01T11:20:14.815Z,37.38
2023-05-01T11:21:14.772Z,34.16
2023-05-01T11:22:14.782Z,33.52
2023-05-01T11:23:14.927Z,33.35
2023-05-01T11:24:14.739Z,33.84
2023-05-01T11:25:14.754Z,39.16
2023-05-01T11:26:14.739Z,34.16
2023-05-01T11:27:14.738Z,32.55
2023-05-01T11:28:14.734Z,33.68
2023-05-01T11:29:14.713Z,32.71
2023-05-01T11:30:14.710Z,34.48
2023-05-01T11:31:14.717Z,35.61
2023-05-01T11:32:14.931Z,33.68
2023-05-01T11:33:14.716Z,33.68
2023-05-01T11:34:14.678Z,37.22
2023-05-01T11:35:14.692Z,37.22
2023-05-01T11:36:14.694Z,39.16
2023-05-01T11:37:14.617Z,34.32
2023-05-01T11:38:14.596Z,35.13
2023-05-01T11:39:14.578Z,36.58
2023-05-01T11:40:14.584Z,33.68
2023-05-01T11:41:14.583Z,34.97
2023-05-01T11:42:14.641Z,33.84
2023-05-01T11:43:14.621Z,34.00
2023-05-01T11:44:14.574Z,33.84
2023-05-01T11:45:14.560Z,36.25
2023-05-01T11:46:14.577Z,34.48
2023-05-01T11:47:14.544Z,34.97
2023-05-01T11:48:14.653Z,44.47
2023-05-01T11:49:14.522Z,34.80
2023-05-01T11:50:14.504Z,32.71
2023-05-01T11:51:14.497Z,35.77
2023-05-01T11:52:14.507Z,34.16
2023-05-01T11:53:14.511Z,35.77
2023-05-01T11:54:15.745Z,34.97
2023-05-01T11:55:15.459Z,34.64
2023-05-01T11:56:25.367Z,37.22
2023-05-01T11:57:16.453Z,35.45
2023-05-01T11:58:14.394Z,36.09
2023-05-01T11:59:15.440Z,34.64
2023-05-01T12:00:14.409Z,36.42
2023-05-01T12:01:14.391Z,34.32
2023-05-01T12:02:14.461Z,36.09
2023-05-01T12:03:14.695Z,36.58
2023-05-01T12:04:14.614Z,36.25
2023-05-01T12:05:14.382Z,35.77
2023-05-01T12:06:14.426Z,35.93
2023-05-01T12:07:14.352Z,36.25
2023-05-01T12:08:14.332Z,36.09
2023-05-01T12:09:14.314Z,37.71
2023-05-01T12:10:14.301Z,37.87
2023-05-01T12:11:14.269Z,42.22
2023-05-01T12:12:15.313Z,46.25
2023-05-01T12:13:14.316Z,37.38
2023-05-01T12:14:14.300Z,37.06
2023-05-01T12:15:14.310Z,39.48
2023-05-01T12:16:14.254Z,35.93
2023-05-01T12:17:14.326Z,35.93
2023-05-01T12:18:15.359Z,35.29
2023-05-01T12:19:14.217Z,35.29
2023-05-01T12:20:14.246Z,37.38
2023-05-01T12:21:14.224Z,35.45
2023-05-01T12:22:14.234Z,36.42
2023-05-01T12:23:14.196Z,37.06
2023-05-01T12:24:14.195Z,32.55
2023-05-01T12:25:14.185Z,36.09
2023-05-01T12:26:14.151Z,41.41
2023-05-01T12:27:14.185Z,36.90
2023-05-01T12:28:14.144Z,35.61
2023-05-01T12:29:14.125Z,35.45
2023-05-01T12:30:14.127Z,36.74
2023-05-01T12:31:14.131Z,36.74
2023-05-01T12:32:14.109Z,38.99
2023-05-01T12:33:14.087Z,35.77
2023-05-01T12:34:14.078Z,37.06
2023-05-01T12:35:14.120Z,36.74
2023-05-01T12:36:14.038Z,36.58
2023-05-01T12:37:14.042Z,35.13
2023-05-01T12:38:14.040Z,34.97
2023-05-01T12:39:15.023Z,34.00
2023-05-01T12:40:14.095Z,35.45
2023-05-01T12:41:14.043Z,38.51
2023-05-01T12:42:14.020Z,34.64
2023-05-01T12:43:14.005Z,34.32
2023-05-01T12:44:13.981Z,36.42
2023-05-01T12:45:14.990Z,35.61
2023-05-01T12:46:14.006Z,35.61
2023-05-01T12:47:13.956Z,36.25
2023-05-01T12:48:13.993Z,39.16
2023-05-01T12:49:13.927Z,39.80
2023-05-01T12:50:13.884Z,37.22
2023-05-01T12:51:13.919Z,36.25
2023-05-01T12:52:13.899Z,37.22
2023-05-01T12:53:13.887Z,36.90
2023-05-01T12:54:13.861Z,41.09
2023-05-01T12:55:13.876Z,38.99